Time;durP1;ratioP1;P1;durP2;ratioP2;P2;SDS_P1;SDS_P2;PMS_P1;PMS_P2;Temp;Humidity;BMP_temperature;BMP_pressure;BME280_temperature;BME280_humidity;BME280_pressure;Samples;Min_cycle;Max_cycle;Signal;HPM_P1;HPM_P2
2023/12/05 00:01:44;;;;;;;;;1.00;0.00;;;;;9.40;85.90;99616.19;5079945;28;45340;-46
2023/12/05 00:04:09;;;;;;;;;1.00;1.00;;;;;9.38;85.10;99626.13;5080414;28;45332;-46
2023/12/05 00:06:36;;;;;;;;;2.00;0.67;;;;;9.40;85.40;99618.00;5079409;28;46097;-45
2023/12/05 00:09:02;;;;;;;;;1.00;1.00;;;;;9.40;84.60;99616.19;5080060;28;45396;-44
2023/12/05 00:11:27;;;;;;;;;0.00;0.00;;;;;9.40;84.54;99624.13;5080415;28;45699;-44
2023/12/05 00:13:52;;;;;;;;;1.00;0.00;;;;;9.41;84.92;99619.66;5080553;28;45327;-44
2023/12/05 00:16:18;;;;;;;;;2.00;0.67;;;;;9.42;84.90;99624.78;5079669;28;45490;-45
2023/12/05 00:18:46;;;;;;;;;1.00;0.67;;;;;9.38;84.57;99614.66;5079638;28;45454;-46
2023/12/05 00:21:12;;;;;;;;;1.33;0.00;;;;;9.38;84.24;99626.13;5079519;28;45240;-46
2023/12/05 00:23:37;;;;;;;;;0.00;0.00;;;;;9.38;84.71;99627.94;5079366;28;45319;-45
2023/12/05 00:26:03;;;;;;;;;1.00;0.00;;;;;9.37;84.29;99631.59;5079582;28;45918;-44
2023/12/05 00:28:29;;;;;;;;;1.00;1.00;;;;;9.38;84.72;99625.28;5079310;28;45291;-45
2023/12/05 00:30:54;;;;;;;;;0.00;0.00;;;;;9.37;84.32;99623.63;5079545;28;45396;-47
2023/12/05 00:33:20;;;;;;;;;1.33;0.67;;;;;9.36;84.22;99625.47;5079849;28;45295;-46
2023/12/05 00:35:45;;;;;;;;;1.67;1.00;;;;;9.31;84.23;99618.97;5079237;28;46232;-45
2023/12/05 00:38:10;;;;;;;;;0.00;0.00;;;;;9.33;83.94;99620.47;5079244;28;45425;-44
2023/12/05 00:40:36;;;;;;;;;0.00;0.00;;;;;9.32;83.37;99621.47;5079281;28;45388;-46
2023/12/05 00:43:01;;;;;;;;;0.00;0.00;;;;;9.31;83.29;99640.19;5079589;28;45497;-44
2023/12/05 00:45:26;;;;;;;;;1.00;1.00;;;;;9.30;83.11;99639.38;5078904;28;46968;-46
2023/12/05 00:47:53;;;;;;;;;0.00;0.00;;;;;9.28;83.20;99629.94;5079128;28;45445;-46
2023/12/05 00:50:18;;;;;;;;;0.67;0.67;;;;;9.28;83.57;99636.06;5079422;28;45304;-47
2023/12/05 00:52:43;;;;;;;;;1.33;0.33;;;;;9.29;83.11;99642.22;5079080;28;45364;-45
2023/12/05 00:55:09;;;;;;;;;2.00;0.00;;;;;9.28;82.69;99643.22;5078506;28;48864;-46
2023/12/05 00:57:34;;;;;;;;;2.00;1.00;;;;;9.27;82.78;99636.22;5079020;28;45363;-45
2023/12/05 00:59:59;;;;;;;;;3.00;0.00;;;;;9.28;82.62;99636.06;5079137;28;46409;-47
2023/12/05 01:02:25;;;;;;;;;1.00;1.00;;;;;9.22;82.46;99636.72;5079095;28;45483;-46
2023/12/05 01:04:50;;;;;;;;;0.00;0.00;;;;;9.27;82.28;99642.38;5078750;28;45440;-47
2023/12/05 01:07:15;;;;;;;;;2.00;0.00;;;;;9.14;82.62;99610.19;5078760;28;45423;-46
2023/12/05 01:09:41;;;;;;;;;0.00;0.00;;;;;9.21;81.82;99633.25;5078871;28;45331;-46
2023/12/05 01:12:11;;;;;;;;;3.00;0.00;;;;;9.29;82.18;99644.88;5078720;28;45325;-46
2023/12/05 01:14:37;;;;;;;;;0.00;0.00;;;;;9.27;82.12;99645.03;5078522;28;45509;-45
2023/12/05 01:17:03;;;;;;;;;0.00;0.00;;;;;9.27;82.22;99645.03;5078661;28;45472;-45
2023/12/05 01:19:29;;;;;;;;;0.00;0.00;;;;;9.26;82.01;99646.00;5078493;28;45462;-45
2023/12/05 01:21:54;;;;;;;;;2.00;0.33;;;;;9.21;81.27;99646.50;5078706;28;45324;-44
2023/12/05 01:24:20;;;;;;;;;1.00;0.00;;;;;9.10;81.35;99628.28;5078519;28;45342;-46
2023/12/05 01:26:45;;;;;;;;;2.00;1.00;;;;;9.26;81.36;99648.66;5078425;28;45380;-47
2023/12/05 01:29:10;;;;;;;;;0.67;0.00;;;;;9.22;81.70;99645.50;5078325;28;45482;-43
2023/12/05 01:31:36;;;;;;;;;1.00;1.00;;;;;9.26;80.84;99653.97;5078648;28;45768;-45
2023/12/05 01:34:01;;;;;;;;;3.00;1.00;;;;;9.28;81.24;99659.13;5078573;28;45433;-45
2023/12/05 01:36:27;;;;;;;;;1.00;1.00;;;;;9.26;80.30;99667.25;5078140;28;45209;-46
2023/12/05 01:38:52;;;;;;;;;1.00;0.00;;;;;9.27;80.56;99657.44;5078131;28;45497;-46
2023/12/05 01:41:18;;;;;;;;;5.67;1.67;;;;;9.17;80.72;99650.47;5078539;28;45477;-43
2023/12/05 01:43:43;;;;;;;;;2.67;1.00;;;;;9.27;80.50;99668.94;5077973;28;46336;-44
2023/12/05 01:46:09;;;;;;;;;0.33;0.33;;;;;9.26;80.10;99675.19;5078212;28;45316;-46
2023/12/05 01:48:35;;;;;;;;;0.33;0.00;;;;;9.28;80.49;99667.09;5078196;28;45342;-45
2023/12/05 01:51:05;;;;;;;;;0.00;0.00;;;;;9.29;80.11;99674.88;5078320;28;45246;-45
2023/12/05 01:53:31;;;;;;;;;1.00;0.00;;;;;9.27;79.51;99673.38;5077904;28;45403;-46
2023/12/05 01:55:58;;;;;;;;;1.33;1.33;;;;;9.25;79.64;99668.25;5077743;28;45359;-47
2023/12/05 01:58:25;;;;;;;;;0.00;0.00;;;;;9.25;79.61;99679.69;5078107;28;45417;-44
2023/12/05 02:00:50;;;;;;;;;3.00;0.00;;;;;9.24;78.80;99680.69;5078175;28;45355;-47
2023/12/05 02:03:16;;;;;;;;;1.00;0.00;;;;;9.20;78.76;99679.34;5077745;28;45364;-45
2023/12/05 02:05:41;;;;;;;;;0.33;0.33;;;;;9.24;79.15;99677.19;5077948;28;45403;-44
2023/12/05 02:08:10;;;;;;;;;3.00;0.00;;;;;9.25;78.17;99676.19;5076979;28;45435;-46
2023/12/05 02:10:35;;;;;;;;;0.00;0.00;;;;;9.25;79.17;99678.84;5078180;28;45390;-46
2023/12/05 02:13:01;;;;;;;;;0.33;0.00;;;;;9.24;78.30;99678.03;5077589;28;47995;-47
2023/12/05 02:15:26;;;;;;;;;0.00;0.00;;;;;9.25;78.23;99689.47;5077599;28;45352;-45
2023/12/05 02:18:12;;;;;;;;;6.33;2.00;;;;;9.15;78.20;99675.53;5077588;28;45249;-46
2023/12/05 02:20:53;;;;;;;;;1.00;0.00;;;;;9.27;78.31;99682.19;5077891;28;45280;-45
2023/12/05 02:23:40;;;;;;;;;0.00;0.00;;;;;9.27;78.66;99678.69;5077398;28;45805;-47
2023/12/05 02:26:20;;;;;;;;;1.00;0.00;;;;;9.25;78.83;99682.34;5077219;28;45339;-44
2023/12/05 02:28:45;;;;;;;;;1.33;0.00;;;;;9.23;78.33;99684.34;5077771;28;45561;-46
2023/12/05 02:31:11;;;;;;;;;0.00;0.00;;;;;9.23;78.63;99680.84;5077578;28;45253;-45
2023/12/05 02:33:36;;;;;;;;;1.00;0.00;;;;;9.22;78.81;99687.13;5077566;28;45376;-43
2023/12/05 02:36:19;;;;;;;;;1.67;0.00;;;;;9.22;79.03;99697.75;5077243;28;45304;-46
2023/12/05 02:38:48;;;;;;;;;0.00;0.00;;;;;9.21;79.19;99699.56;5077351;28;45316;-44
2023/12/05 02:41:22;;;;;;;;;2.00;0.00;;;;;9.22;79.86;99706.53;5077695;28;45332;-45
2023/12/05 02:43:57;;;;;;;;;0.67;0.00;;;;;9.20;79.93;99703.22;5077366;28;45446;-47
2023/12/05 02:46:24;;;;;;;;;0.00;0.00;;;;;9.19;80.50;99720.16;5077194;28;45483;-45
2023/12/05 02:48:51;;;;;;;;;0.00;0.00;;;;;9.15;80.74;99712.69;5077206;28;45387;-46
2023/12/05 02:51:17;;;;;;;;;0.00;0.00;;;;;9.15;80.55;99718.00;5077663;28;45466;-46
2023/12/05 02:53:42;;;;;;;;;1.33;0.00;;;;;9.12;81.08;99724.44;5058476;28;46407;-44
2023/12/05 02:56:07;;;;;;;;;0.00;0.00;;;;;9.08;80.97;99725.75;5059038;28;45391;-46
2023/12/05 02:58:33;;;;;;;;;0.67;0.00;;;;;9.07;81.51;99734.72;5077236;28;45363;-46
2023/12/05 03:01:00;;;;;;;;;0.00;0.00;;;;;9.02;80.66;99712.28;5077412;28;45481;-47
2023/12/05 03:03:25;;;;;;;;;0.00;0.00;;;;;8.90;81.13;99711.78;5077061;28;46333;-46
2023/12/05 03:05:51;;;;;;;;;0.00;0.00;;;;;8.99;80.77;99727.56;5076902;28;45309;-45
2023/12/05 03:08:16;;;;;;;;;0.00;0.00;;;;;8.97;81.00;99740.16;5076984;28;45403;-46
2023/12/05 03:10:41;;;;;;;;;0.33;0.00;;;;;8.92;80.88;99728.34;5077117;28;45364;-44
2023/12/05 03:13:07;;;;;;;;;1.00;0.00;;;;;8.87;80.78;99733.31;5076530;28;54134;-44
2023/12/05 03:15:32;;;;;;;;;0.00;0.00;;;;;8.85;81.58;99735.28;5076683;28;48305;-45
2023/12/05 03:17:57;;;;;;;;;0.00;0.00;;;;;8.78;81.24;99739.59;5076762;28;45407;-46
2023/12/05 03:20:22;;;;;;;;;0.00;0.00;;;;;8.74;80.74;99744.38;5077285;28;45260;-44
2023/12/05 03:22:48;;;;;;;;;0.00;0.00;;;;;8.72;81.28;99756.94;5075495;28;49975;-45
2023/12/05 03:25:13;;;;;;;;;1.67;0.00;;;;;8.56;81.29;99733.84;5058615;28;45304;-47
2023/12/05 03:27:38;;;;;;;;;0.00;0.00;;;;;8.64;81.19;99752.47;5076722;28;45383;-46
2023/12/05 03:30:04;;;;;;;;;0.00;0.00;;;;;8.58;81.68;99753.06;5077274;28;45440;-47
2023/12/05 03:32:30;;;;;;;;;0.00;0.00;;;;;8.58;82.04;99749.59;5076429;28;47195;-45
2023/12/05 03:34:55;;;;;;;;;0.00;0.00;;;;;8.54;82.02;99770.28;5076651;28;45445;-46
2023/12/05 03:37:20;;;;;;;;;0.00;0.00;;;;;8.50;82.00;99742.44;5076518;28;45427;-46
2023/12/05 03:39:46;;;;;;;;;0.00;0.00;;;;;8.42;81.40;99737.09;5077032;28;45861;-45
2023/12/05 03:42:11;;;;;;;;;0.00;0.00;;;;;8.41;81.26;99746.03;5076572;28;46305;-47
2023/12/05 03:44:36;;;;;;;;;0.00;0.00;;;;;8.37;80.36;99748.16;5076753;28;45481;-46
2023/12/05 03:47:02;;;;;;;;;0.00;0.00;;;;;8.33;81.09;99753.91;5076762;28;45375;-46
2023/12/05 03:49:27;;;;;;;;;0.00;0.00;;;;;8.25;80.51;99749.38;5076891;28;45538;-47
2023/12/05 03:51:52;;;;;;;;;0.00;0.00;;;;;8.19;80.06;99739.41;5076751;28;46060;-44
2023/12/05 03:54:17;;;;;;;;;0.00;0.00;;;;;8.23;80.96;99751.34;5076626;28;45441;-46
2023/12/05 03:56:43;;;;;;;;;0.00;0.00;;;;;8.23;80.99;99752.19;5076761;28;45304;-44
2023/12/05 03:59:08;;;;;;;;;0.00;0.00;;;;;8.21;81.39;99742.72;5076865;28;45415;-45
2023/12/05 04:01:34;;;;;;;;;0.00;0.00;;;;;8.15;81.20;99741.53;5076661;28;45995;-45
2023/12/05 04:03:59;;;;;;;;;0.00;0.00;;;;;8.13;81.41;99755.91;5076333;28;45347;-46
2023/12/05 04:06:24;;;;;;;;;0.00;0.00;;;;;8.18;81.93;99762.44;5076464;28;45698;-47
2023/12/05 04:08:50;;;;;;;;;0.00;0.00;;;;;8.11;80.96;99757.91;5076638;28;45497;-45
2023/12/05 04:11:16;;;;;;;;;0.00;0.00;;;;;8.05;82.08;99753.19;5075318;28;45391;-46
2023/12/05 04:13:41;;;;;;;;;0.00;0.00;;;;;8.19;82.42;99774.69;5076079;28;45980;-45
2023/12/05 04:16:07;;;;;;;;;0.00;0.00;;;;;8.21;82.20;99788.59;5076426;28;45370;-45
2023/12/05 04:18:33;;;;;;;;;0.00;0.00;;;;;8.20;82.28;99783.47;5076566;28;45367;-47
2023/12/05 04:20:58;;;;;;;;;1.00;0.00;;;;;8.22;82.67;99797.41;5076224;28;46753;-45
2023/12/05 04:23:23;;;;;;;;;0.00;0.00;;;;;8.22;82.89;99800.03;5076080;28;45406;-46
2023/12/05 04:25:49;;;;;;;;;0.00;0.00;;;;;8.22;81.88;99789.44;5076452;28;45409;-46
2023/12/05 04:28:14;;;;;;;;;0.00;0.00;;;;;8.23;81.81;99793.75;5076269;28;45357;-46
2023/12/05 04:30:39;;;;;;;;;0.00;0.00;;;;;8.24;83.17;99806.00;5077195;28;47377;-45
2023/12/05 04:33:05;;;;;;;;;0.00;0.00;;;;;8.23;83.31;99794.56;5079545;28;45280;-44
2023/12/05 04:35:30;;;;;;;;;0.00;0.00;;;;;8.21;83.57;99790.41;5079414;28;45863;-47
2023/12/05 04:37:56;;;;;;;;;0.00;0.00;;;;;8.27;83.94;99810.19;5079498;28;45730;-46
2023/12/05 04:40:21;;;;;;;;;0.00;0.00;;;;;8.27;84.60;99810.19;5079052;28;46335;-46
2023/12/05 04:42:46;;;;;;;;;0.00;0.00;;;;;8.24;83.28;99806.84;5060788;28;45372;-46
2023/12/05 04:45:11;;;;;;;;;0.00;0.00;;;;;8.28;84.48;99812.66;5061127;28;45376;-44
2023/12/05 04:47:37;;;;;;;;;0.00;0.00;;;;;8.28;85.14;99825.06;5079602;28;45465;-46
2023/12/05 04:50:02;;;;;;;;;0.00;0.00;;;;;8.28;84.84;99833.03;5078677;28;54117;-47
2023/12/05 04:52:28;;;;;;;;;0.00;0.00;;;;;8.29;85.13;99824.09;5079176;28;45281;-46
2023/12/05 04:54:53;;;;;;;;;2.00;0.00;;;;;8.30;84.59;99825.75;5078823;28;45350;-46
2023/12/05 04:57:19;;;;;;;;;2.00;0.00;;;;;8.31;85.50;99832.72;5079414;28;45691;-46
2023/12/05 04:59:44;;;;;;;;;0.00;0.00;;;;;8.34;83.97;99824.44;5060793;28;46304;-44
2023/12/05 05:02:11;;;;;;;;;0.00;0.00;;;;;8.32;85.59;99829.09;5079087;28;45368;-45
2023/12/05 05:04:36;;;;;;;;;1.00;0.00;;;;;8.31;85.62;99838.03;5078902;28;45392;-46
2023/12/05 05:07:04;;;;;;;;;0.00;0.00;;;;;8.34;84.59;99846.47;5060803;28;45425;-44
2023/12/05 05:09:29;;;;;;;;;0.00;0.00;;;;;8.35;84.63;99842.03;5078696;28;45373;-45
2023/12/05 05:11:55;;;;;;;;;2.00;0.00;;;;;8.35;85.67;99850.81;5078516;28;45657;-46
2023/12/05 05:14:20;;;;;;;;;0.33;0.33;;;;;8.37;84.93;99848.03;5079122;28;45366;-46
2023/12/05 05:16:45;;;;;;;;;0.00;0.00;;;;;8.39;85.16;99861.97;5078792;28;45368;-46
2023/12/05 05:19:11;;;;;;;;;0.00;0.00;;;;;8.39;84.44;99862.81;5078797;28;45364;-45
2023/12/05 05:21:36;;;;;;;;;0.00;0.00;;;;;8.39;85.17;99862.81;5078870;28;45339;-43
2023/12/05 05:24:01;;;;;;;;;0.00;0.00;;;;;8.36;85.02;99851.63;5078591;28;45295;-46
2023/12/05 05:26:27;;;;;;;;;0.00;0.00;;;;;8.42;85.51;99866.94;5079021;28;45347;-45
2023/12/05 05:28:52;;;;;;;;;0.00;0.00;;;;;8.43;84.85;99865.97;5078600;28;46027;-45
2023/12/05 05:31:17;;;;;;;;;1.00;1.00;;;;;8.43;85.58;99863.31;5078853;28;45196;-45
2023/12/05 05:33:43;;;;;;;;;0.00;0.00;;;;;8.41;85.22;99879.38;5079522;28;45513;-44
2023/12/05 05:36:09;;;;;;;;;0.33;0.00;;;;;8.43;85.64;99880.06;5078999;28;45253;-45
2023/12/05 05:38:34;;;;;;;;;0.00;0.00;;;;;8.44;84.78;99894.13;5060149;28;45987;-45
2023/12/05 05:41:04;;;;;;;;;0.00;0.00;;;;;8.46;85.35;99887.69;5077715;28;47959;-45
2023/12/05 05:43:30;;;;;;;;;0.00;0.00;;;;;8.46;85.60;99886.84;5077711;28;45641;-45
2023/12/05 05:45:55;;;;;;;;;1.00;0.00;;;;;8.46;85.19;99900.09;5078482;28;45383;-44
2023/12/05 05:48:20;;;;;;;;;0.00;0.00;;;;;8.44;84.87;99900.28;5078273;28;45971;-44
2023/12/05 05:50:45;;;;;;;;;0.00;0.00;;;;;8.45;85.31;99903.75;5077945;28;45315;-46
2023/12/05 05:53:11;;;;;;;;;0.00;0.00;;;;;8.44;85.04;99915.34;5078246;28;45315;-48
2023/12/05 05:55:36;;;;;;;;;0.00;0.00;;;;;8.44;84.79;99915.34;5078049;28;45472;-46
2023/12/05 05:58:01;;;;;;;;;0.00;0.00;;;;;8.43;84.89;99921.63;5077766;28;52475;-45
2023/12/05 06:00:27;;;;;;;;;2.00;2.00;;;;;8.44;85.38;99923.28;5077833;28;46473;-46
2023/12/05 06:02:52;;;;;;;;;0.00;0.00;;;;;8.42;85.53;99930.53;5078109;28;45354;-46
2023/12/05 06:05:17;;;;;;;;;0.33;0.00;;;;;8.41;85.34;99923.59;5078511;28;45338;-46
2023/12/05 06:07:43;;;;;;;;;0.00;0.00;;;;;8.42;84.96;99930.53;5077750;28;45429;-46
2023/12/05 06:10:08;;;;;;;;;0.67;0.00;;;;;8.10;84.53;99886.88;5077786;28;45391;-46
2023/12/05 06:12:34;;;;;;;;;0.00;0.00;;;;;8.40;85.30;99929.88;5077850;28;45475;-46
2023/12/05 06:14:59;;;;;;;;;0.00;0.00;;;;;8.40;85.96;99938.66;5078047;28;45296;-47
2023/12/05 06:17:24;;;;;;;;;0.33;0.00;;;;;8.40;85.54;99940.47;5077725;28;46181;-45
2023/12/05 06:19:50;;;;;;;;;2.00;0.00;;;;;8.43;85.34;99938.38;5077632;28;45281;-46
2023/12/05 06:22:15;;;;;;;;;1.00;0.00;;;;;8.40;85.30;99937.84;5078060;28;45342;-46
2023/12/05 06:24:41;;;;;;;;;1.00;0.00;;;;;8.40;84.80;99946.63;5077763;28;45320;-46
2023/12/05 06:27:06;;;;;;;;;0.00;0.00;;;;;8.40;85.20;99949.25;5077440;28;46248;-46
2023/12/05 06:29:32;;;;;;;;;2.00;0.00;;;;;8.41;84.99;99960.69;5077184;28;45350;-48
2023/12/05 06:31:57;;;;;;;;;0.00;0.00;;;;;8.42;84.95;99965.84;5077974;28;45301;-45
2023/12/05 06:34:24;;;;;;;;;0.00;0.00;;;;;8.41;85.03;99963.34;5077776;28;45776;-45
2023/12/05 06:36:49;;;;;;;;;0.00;0.00;;;;;8.33;84.66;99955.28;5077380;28;47013;-44
2023/12/05 06:39:14;;;;;;;;;0.33;0.00;;;;;8.42;84.27;99975.59;5077212;28;45390;-44
2023/12/05 06:41:40;;;;;;;;;0.00;0.00;;;;;8.41;84.95;99985.38;5075772;28;46716;-46
2023/12/05 06:44:05;;;;;;;;;2.00;0.00;;;;;8.41;83.96;99988.03;5077535;28;45470;-46
2023/12/05 06:46:30;;;;;;;;;0.00;0.00;;;;;8.42;84.29;99986.22;5077059;28;46992;-46
2023/12/05 06:48:56;;;;;;;;;0.00;0.00;;;;;8.42;84.62;99994.16;5077350;28;45394;-46
2023/12/05 06:51:22;;;;;;;;;0.00;0.00;;;;;8.40;84.09;100002.28;5077433;28;45365;-44
2023/12/05 06:53:47;;;;;;;;;0.33;0.00;;;;;8.39;84.71;99991.84;5077132;28;45370;-45
2023/12/05 06:56:14;;;;;;;;;0.00;0.00;;;;;8.38;83.78;99998.91;5076746;28;45449;-46
2023/12/05 06:58:40;;;;;;;;;0.00;0.00;;;;;8.31;84.17;99997.84;5077019;28;45196;-48
2023/12/05 07:01:06;;;;;;;;;0.00;0.00;;;;;8.38;84.19;100024.59;5077144;28;45399;-45
2023/12/05 07:03:31;;;;;;;;;0.00;0.00;;;;;8.38;84.31;100014.00;5076466;28;45417;-44
2023/12/05 07:05:56;;;;;;;;;0.00;0.00;;;;;8.32;84.44;100010.09;5076886;28;46076;-46
2023/12/05 07:08:22;;;;;;;;;1.67;0.00;;;;;8.38;83.63;100011.34;5076822;28;45363;-48
2023/12/05 07:10:47;;;;;;;;;0.00;0.00;;;;;8.38;85.12;100029.91;5077027;28;45363;-46
2023/12/05 07:13:12;;;;;;;;;0.00;0.00;;;;;8.33;85.01;100021.53;5077149;28;45338;-45
2023/12/05 07:15:38;;;;;;;;;0.00;0.00;;;;;8.37;84.70;100038.84;5076623;28;46247;-47
2023/12/05 07:18:03;;;;;;;;;0.67;0.00;;;;;8.35;83.95;100040.78;5076931;28;45442;-46
2023/12/05 07:20:28;;;;;;;;;1.00;1.00;;;;;8.35;84.15;100048.72;5076754;28;45316;-45
2023/12/05 07:22:54;;;;;;;;;3.00;1.00;;;;;8.36;83.61;100050.41;5077320;28;45394;-47
2023/12/05 07:25:19;;;;;;;;;2.00;0.00;;;;;8.35;84.28;100057.50;5076466;28;45347;-45
2023/12/05 07:27:45;;;;;;;;;3.33;1.00;;;;;8.34;84.33;100053.16;5076850;28;45454;-46
2023/12/05 07:30:11;;;;;;;;;1.00;1.00;;;;;8.38;84.61;100061.69;5076866;28;45358;-46
2023/12/05 07:32:36;;;;;;;;;1.00;1.00;;;;;8.37;84.28;100070.63;5077156;28;45524;-47
2023/12/05 07:35:02;;;;;;;;;1.00;1.00;;;;;8.35;84.54;100069.94;5077033;28;46018;-46
2023/12/05 07:37:27;;;;;;;;;2.00;0.33;;;;;8.33;85.18;100077.19;5076737;28;45328;-46
2023/12/05 07:39:52;;;;;;;;;0.67;0.67;;;;;8.36;84.79;100075.06;5076056;28;45402;-46
2023/12/05 07:42:18;;;;;;;;;0.00;0.00;;;;;8.37;84.79;100081.25;5076905;28;45549;-46
2023/12/05 07:44:43;;;;;;;;;1.00;1.00;;;;;8.36;84.11;100098.94;5076681;28;46049;-45
2023/12/05 07:47:08;;;;;;;;;0.00;0.00;;;;;8.38;84.38;100082.91;5076484;28;45359;-49
2023/12/05 07:49:34;;;;;;;;;1.00;1.00;;;;;8.37;84.57;100089.19;5076727;28;45224;-44
2023/12/05 07:52:00;;;;;;;;;2.00;0.67;;;;;8.37;84.62;100099.78;5076845;28;45383;-46
2023/12/05 07:54:26;;;;;;;;;1.00;1.00;;;;;8.37;84.36;100094.50;5075236;28;46360;-45
2023/12/05 07:56:51;;;;;;;;;1.00;1.00;;;;;8.40;84.66;100088.91;5054378;27;45555;-44
2023/12/05 07:59:16;;;;;;;;;2.00;0.67;;;;;8.41;84.38;100101.16;5073616;27;45390;-45
2023/12/05 08:01:44;;;;;;;;;1.00;1.00;;;;;8.41;84.59;100109.94;5070966;27;45374;-46
2023/12/05 08:04:09;;;;;;;;;1.67;1.00;;;;;8.42;84.73;100110.78;5070031;28;46093;-44
2023/12/05 08:06:34;;;;;;;;;2.00;2.00;;;;;8.43;83.99;100115.13;5073362;28;45343;-45
2023/12/05 08:09:00;;;;;;;;;2.00;0.33;;;;;8.40;84.44;100107.44;5074223;27;46692;-46
2023/12/05 08:11:25;;;;;;;;;1.00;1.00;;;;;8.41;84.84;100117.06;5074173;27;45399;-45
2023/12/05 08:13:51;;;;;;;;;3.00;1.00;;;;;8.43;84.22;100121.25;5073592;28;45989;-46
2023/12/05 08:16:16;;;;;;;;;2.67;1.00;;;;;8.43;84.45;100123.91;5074156;28;45458;-44
2023/12/05 08:18:42;;;;;;;;;1.33;1.33;;;;;8.41;84.26;100127.66;5073967;28;45347;-46
2023/12/05 08:21:07;;;;;;;;;3.67;1.67;;;;;8.44;84.12;100133.50;5074195;28;45491;-45
2023/12/05 08:23:33;;;;;;;;;3.00;1.00;;;;;8.46;83.88;100130.69;5074438;28;45395;-45
2023/12/05 08:25:58;;;;;;;;;1.33;1.33;;;;;8.47;84.50;100137.69;5073357;28;46121;-46
2023/12/05 08:28:23;;;;;;;;;1.00;1.00;;;;;8.48;84.16;100149.97;5073643;28;45483;-45
2023/12/05 08:30:49;;;;;;;;;1.00;1.00;;;;;8.48;84.14;100142.00;5055511;28;45878;-45
2023/12/05 08:33:15;;;;;;;;;6.33;2.67;;;;;8.49;83.88;100154.28;5073850;27;46255;-44
2023/12/05 08:35:40;;;;;;;;;5.00;2.00;;;;;8.50;84.44;100163.88;5088922;27;45418;-44
2023/12/05 08:38:06;;;;;;;;;6.00;1.67;;;;;8.52;84.44;100155.81;5073877;28;45475;-47
2023/12/05 08:40:31;;;;;;;;;2.00;1.67;;;;;8.52;83.73;100169.06;5074585;28;45399;-45
2023/12/05 08:42:57;;;;;;;;;2.00;2.00;;;;;8.55;83.83;100168.75;5073528;27;46325;-44
2023/12/05 08:45:22;;;;;;;;;3.00;2.00;;;;;8.55;83.92;100172.22;5073598;28;45734;-46
2023/12/05 08:47:52;;;;;;;;;1.00;1.00;;;;;8.58;83.88;100177.25;5073813;28;45360;-47
2023/12/05 08:50:18;;;;;;;;;3.00;1.67;;;;;8.49;83.10;100163.06;5073956;28;45360;-47
2023/12/05 08:52:44;;;;;;;;;2.00;2.00;;;;;8.58;83.40;100171.94;5073783;27;45472;-45
2023/12/05 08:55:10;;;;;;;;;1.00;1.00;;;;;8.58;82.88;100174.59;5073574;27;45485;-46
2023/12/05 08:57:36;;;;;;;;;1.67;1.00;;;;;8.59;82.54;100197.47;5073661;28;46296;-46
2023/12/05 09:00:04;;;;;;;;;2.00;1.00;;;;;8.55;82.69;100179.34;5074069;28;46079;-47
2023/12/05 09:02:30;;;;;;;;;1.00;1.00;;;;;8.61;82.39;100184.06;5072776;28;46184;-47
2023/12/05 09:04:56;;;;;;;;;0.33;0.33;;;;;8.64;83.04;100191.75;5073267;27;45424;-46
2023/12/05 09:07:21;;;;;;;;;1.00;1.00;;;;;8.65;83.04;100193.41;5073863;28;45751;-45
2023/12/05 09:09:48;;;;;;;;;1.00;1.00;;;;;8.67;83.14;100199.38;5073372;28;45456;-45
2023/12/05 09:12:14;;;;;;;;;1.33;1.00;;;;;8.69;82.97;100213.34;5073297;28;47114;-48
2023/12/05 09:14:39;;;;;;;;;0.00;0.00;;;;;8.68;82.85;100211.66;5072959;28;45461;-45
2023/12/05 09:17:04;;;;;;;;;1.00;1.00;;;;;8.72;83.08;100202.41;5073055;28;45505;-46
2023/12/05 09:19:30;;;;;;;;;2.00;1.00;;;;;8.70;82.90;100207.88;5073538;28;45335;-46
2023/12/05 09:21:55;;;;;;;;;1.00;1.00;;;;;8.71;82.04;100216.66;5072852;27;46281;-47
2023/12/05 09:24:21;;;;;;;;;2.00;2.00;;;;;8.70;82.98;100225.59;5072478;27;45452;-46
2023/12/05 09:26:46;;;;;;;;;1.00;1.00;;;;;8.68;82.67;100217.81;5072797;28;45431;-46
2023/12/05 09:29:12;;;;;;;;;1.00;1.00;;;;;8.69;82.50;100232.72;5073623;28;45428;-46
2023/12/05 09:31:38;;;;;;;;;2.00;2.00;;;;;8.69;82.98;100235.38;5072110;28;46246;-47
2023/12/05 09:34:03;;;;;;;;;2.00;0.00;;;;;8.70;82.46;100245.00;5072854;27;45656;-46
2023/12/05 09:36:30;;;;;;;;;0.67;0.67;;;;;8.70;82.26;100245.00;5073061;28;45454;-45
2023/12/05 09:38:56;;;;;;;;;2.33;1.33;;;;;8.68;82.91;100241.69;5073264;28;45803;-46
2023/12/05 09:41:22;;;;;;;;;0.67;0.67;;;;;8.71;82.29;100244.00;5072423;28;45498;-45
2023/12/05 09:43:49;;;;;;;;;1.00;0.00;;;;;8.71;82.33;100249.31;5072595;28;45475;-47
2023/12/05 09:46:17;;;;;;;;;3.00;1.33;;;;;8.74;82.14;100254.34;5072840;28;45462;-46
2023/12/05 09:48:47;;;;;;;;;1.33;1.33;;;;;8.75;82.37;100256.00;5073110;28;45391;-46
2023/12/05 09:51:15;;;;;;;;;1.67;1.67;;;;;8.78;82.52;100264.66;5072281;28;45410;-47
2023/12/05 09:53:41;;;;;;;;;1.00;1.00;;;;;8.75;82.32;100266.59;5072651;27;45505;-46
2023/12/05 09:56:09;;;;;;;;;1.00;1.00;;;;;8.82;82.71;100271.34;5072625;28;45459;-45
2023/12/05 09:58:36;;;;;;;;;2.00;1.33;;;;;8.89;81.90;100275.91;5072633;28;45505;-46
2023/12/05 10:01:04;;;;;;;;;4.33;1.67;;;;;8.92;81.90;100278.25;5072316;28;45425;-45
2023/12/05 10:03:34;;;;;;;;;2.00;1.00;;;;;8.93;81.95;100285.25;5072182;28;45465;-46
2023/12/05 10:06:05;;;;;;;;;1.33;1.00;;;;;8.96;82.19;100281.44;5072427;28;45535;-46
2023/12/05 10:08:33;;;;;;;;;1.33;1.33;;;;;8.95;82.09;100293.88;5073057;27;45571;-47
2023/12/05 10:11:00;;;;;;;;;1.00;1.00;;;;;8.97;81.86;100291.06;5072533;27;46247;-48
2023/12/05 10:13:26;;;;;;;;;3.00;3.00;;;;;8.93;82.16;100290.56;5071942;28;45539;-45
2023/12/05 10:15:52;;;;;;;;;4.67;1.33;;;;;8.99;82.33;100294.44;5072253;28;45597;-45
2023/12/05 10:18:18;;;;;;;;;2.00;2.00;;;;;8.99;82.03;100300.56;5072793;27;45463;-45
2023/12/05 10:20:43;;;;;;;;;2.00;1.00;;;;;9.04;81.70;100299.28;5071891;28;45478;-47
2023/12/05 10:23:09;;;;;;;;;3.67;1.00;;;;;8.93;81.58;100287.03;5073425;27;45411;-46
2023/12/05 10:25:34;;;;;;;;;2.00;2.00;;;;;8.93;81.79;100292.34;5072723;27;45468;-46
2023/12/05 10:28:05;;;;;;;;;1.00;1.00;;;;;8.99;81.74;100311.19;5071710;28;45896;-46
2023/12/05 10:30:37;;;;;;;;;1.00;1.00;;;;;8.99;81.50;100311.19;5074610;27;46701;-45
2023/12/05 10:33:13;;;;;;;;;3.67;2.00;;;;;8.98;81.32;100308.69;5070395;28;45470;-46
2023/12/05 10:35:38;;;;;;;;;0.67;0.67;;;;;8.98;80.45;100312.16;5070768;28;45438;-46
2023/12/05 10:38:12;;;;;;;;;1.00;1.00;;;;;8.99;80.79;100323.59;5069067;28;45480;-46
2023/12/05 10:40:54;;;;;;;;;3.00;2.00;;;;;8.99;81.11;100319.13;5067896;27;46015;-47
2023/12/05 10:43:20;;;;;;;;;3.67;1.33;;;;;9.00;80.80;100312.00;5072096;27;45479;-46
2023/12/05 10:45:47;;;;;;;;;6.00;5.00;;;;;8.95;80.46;100316.91;5071888;28;45470;-47
2023/12/05 10:48:14;;;;;;;;;2.33;1.33;;;;;8.94;80.55;100317.91;5072114;28;45515;-47
2023/12/05 10:50:39;;;;;;;;;2.33;2.33;;;;;8.97;80.29;100328.22;5069299;28;46333;-45
2023/12/05 10:53:06;;;;;;;;;2.67;2.67;;;;;8.98;80.21;100335.22;5072557;28;45946;-46
2023/12/05 10:55:31;;;;;;;;;3.00;1.33;;;;;8.96;80.69;100327.38;5072297;27;46497;-44
2023/12/05 10:57:58;;;;;;;;;3.00;2.00;;;;;8.98;80.49;100338.69;5071406;28;45465;-45
2023/12/05 11:00:23;;;;;;;;;2.00;2.00;;;;;8.95;80.55;100336.31;5071702;27;45515;-46
2023/12/05 11:02:51;;;;;;;;;3.00;2.00;;;;;8.95;80.20;100332.84;5071494;28;45477;-46
2023/12/05 11:05:19;;;;;;;;;2.00;2.00;;;;;8.95;80.15;100341.63;5071898;28;45399;-46
2023/12/05 11:07:44;;;;;;;;;1.00;1.00;;;;;9.00;80.06;100346.50;5053430;28;45553;-45
2023/12/05 11:10:10;;;;;;;;;2.00;1.00;;;;;8.98;80.43;100341.34;5071403;28;46217;-47
2023/12/05 11:12:37;;;;;;;;;2.00;1.33;;;;;9.00;79.72;100344.66;5071419;27;45836;-47
2023/12/05 11:15:03;;;;;;;;;2.00;1.00;;;;;8.95;79.75;100332.84;5072517;28;45554;-47
2023/12/05 11:17:35;;;;;;;;;6.00;2.00;;;;;9.03;79.97;100343.56;5071596;28;45268;-46
2023/12/05 11:20:22;;;;;;;;;2.67;1.33;;;;;9.04;80.05;100345.22;5071838;28;47222;-47
2023/12/05 11:23:06;;;;;;;;;1.67;1.00;;;;;9.05;79.77;100348.72;5071351;28;45344;-45
2023/12/05 11:25:57;;;;;;;;;2.00;1.67;;;;;9.06;79.44;100350.38;5072158;28;46447;-46
2023/12/05 11:28:22;;;;;;;;;8.33;3.00;;;;;9.05;79.57;100360.16;5071291;28;45533;-46
2023/12/05 11:31:15;;;;;;;;;3.00;3.00;;;;;9.04;80.05;100352.34;5070747;28;46159;-44
2023/12/05 11:34:02;;;;;;;;;6.00;4.33;;;;;9.02;80.05;100357.81;5071163;28;45424;-46
2023/12/05 11:36:54;;;;;;;;;5.00;1.33;;;;;9.04;80.28;100362.97;5071173;28;45642;-45